Flight Track Log - Related Links

Times and Time Zones

All times are in EDT time to prevent confusion due to time zone crossing. See the N81HR flight status page for this flight to view local times or setup timezone preferences in your user account.


Time Position Orientation Groundspeed Altitude Reporting Facility
EDT Latitude Longitude Course Direction KTS MPH feet Rate Location/Type
Fri 11:44:29 AM 39.5167 -104.8667 72° East 239 275 7,600  Level Denver TRACON
Fri 11:45:29 AM 39.5667 -104.9500 308° West 300 345 10,600 2,894 Climbing Denver TRACON
Fri 11:46:50 AM 39.6667 -104.8794 29° Northeast 327 376 14,400 2,853 Climbing Denver Center
Fri 11:47:52 AM 39.7039 -104.7656 67° East 346 398 17,400 2,758 Climbing Denver Center
Fri 11:48:54 AM 39.7436 -104.6397 68° East 357 411 20,100 2,400 Climbing Denver Center
Fri 11:49:57 AM 39.7825 -104.5208 67° East 360 414 22,400 2,208 Climbing Denver Center
Fri 11:50:00 AM 39.7992 -103.9263 72° East  Level Estimated
Fri 11:50:59 AM 39.8211 -104.4019 67° East 355 409 24,700  Level Denver Center
Fri 11:52:01 AM 39.8589 -104.2800 68° East 361 415 26,700 1,935 Climbing Denver Center
Fri 11:53:03 AM 39.8931 -104.1550 70° East 363 418 28,700 1,839 Climbing Denver Center
Fri 11:54:05 AM 39.9244 -103.9956 76° East 378 435 30,500 1,645 Climbing Denver Center
Fri 11:55:07 AM 39.9531 -103.8617 74° East 380 437 32,100 1,258 Climbing Denver Center
Fri 11:56:09 AM 39.9797 -103.7303 75° East 377 434 33,100 968 Climbing Denver Center
Fri 11:57:11 AM 40.0075 -103.5953 75° East 386 444 34,100 968 Climbing Denver Center
Fri 11:58:13 AM 40.0353 -103.4569 75° East 395 455 35,100 968 Climbing Denver Center
Fri 11:59:15 AM 40.0633 -103.3203 75° East 392 451 36,100 1,065 Climbing Denver Center
Fri 12:00:17 PM 40.0953 -103.1564 76° East 389 448 37,300 823 Climbing Denver Center
Fri 12:01:19 PM 40.1219 -103.0200 76° East 389 448 37,800 484 Climbing Denver Center
Fri 12:02:21 PM 40.1497 -102.8811 75° East 394 453 38,300 480 Climbing Denver Center
Fri 12:03:24 PM 40.1756 -102.7392 77° East 401 461 38,800 480 Climbing Denver Center
Fri 12:04:26 PM 40.2036 -102.5969 75° East 403 464 39,300 532 Climbing Denver Center
Fri 12:05:28 PM 40.2339 -102.4367 76° East 408 470 39,900 484 Climbing Denver Center
Fri 12:06:30 PM 40.2606 -102.2992 76° East 409 471 40,300 435 Climbing Denver Center
Fri 12:07:32 PM 40.2908 -102.1372 76° East 409 471 40,800 339 Climbing Denver Center
Fri 12:08:34 PM 40.3172 -101.9972 76° East 413 475 41,000 97 Climbing Denver Center
Fri 12:09:36 PM 40.3489 -101.8303 76° East 425 489 41,000  Level Denver Center
Fri 12:10:38 PM 40.3750 -101.6828 77° East 433 498 41,000  Level Denver Center
Fri 12:11:40 PM 40.4086 -101.5086 76° East 441 507 41,000  Level Denver Center
Fri 12:12:42 PM 40.4353 -101.3550 77° East 450 518 41,000  Level Denver Center
Fri 12:13:44 PM 40.4669 -101.1747 77° East 456 525 41,000  Level Denver Center
Fri 12:14:46 PM 40.4953 -101.0186 77° East 461 531 41,000  Level Denver Center
Fri 12:15:48 PM 40.5272 -100.8356 77° East 464 534 41,000  Level Denver Center
Fri 12:16:51 PM 40.5542 -100.6786 77° East 465 535 41,000  Level Denver Center
Fri 12:17:53 PM 40.5867 -100.4944 77° East 468 539 41,000  Level Denver Center
Fri 12:18:55 PM 40.6142 -100.3356 77° East 470 541 41,000  Level Denver Center
Fri 12:19:57 PM 40.6458 -100.1489 77° East 470 541 41,000  Level Denver Center
Fri 12:20:59 PM 40.6728 -99.9892 77° East 468 539 41,000  Level Denver Center
Fri 12:22:01 PM 40.6997 -99.8253 78° East 465 535 41,000  Level Denver Center
Fri 12:23:03 PM 40.7328 -99.6250 78° East 467 537 41,000  Level Denver Center
Fri 12:24:05 PM 40.7606 -99.4575 78° East 468 539 41,000  Level Denver Center
Fri 12:25:07 PM 40.7858 -99.2975 78° East 466 536 41,000  Level Denver Center
Fri 12:26:18 PM 40.8178 -99.0994 78° East 467 537 41,000  Level Minneapolis Center
Fri 12:27:20 PM 40.8436 -98.9306 79° East 469 540 41,000  Level Minneapolis Center
Fri 12:28:22 PM 40.8697 -98.7617 78° East 470 541 41,000  Level Minneapolis Center
Fri 12:29:24 PM 40.9017 -98.5575 78° East 472 543 41,000  Level Minneapolis Center
Fri 12:30:26 PM 40.9281 -98.3869 78° East 472 543 41,000  Level Minneapolis Center
Fri 12:31:29 PM 40.9536 -98.2181 79° East 472 543 41,000  Level Minneapolis Center
Fri 12:32:31 PM 40.9789 -98.0494 79° East 471 542 41,000  Level Minneapolis Center
Fri 12:33:33 PM 41.0033 -97.8783 79° East 472 543 41,000  Level Minneapolis Center
Fri 12:34:35 PM 41.0328 -97.6747 79° East 471 542 41,000  Level Minneapolis Center
Fri 12:35:37 PM 41.0581 -97.5064 79° East 469 540 41,000  Level Minneapolis Center
Fri 12:36:39 PM 41.0817 -97.3336 80° East 471 542 41,000  Level Minneapolis Center
Fri 12:37:41 PM 41.1064 -97.1647 79° East 470 541 41,000  Level Minneapolis Center
Fri 12:38:43 PM 41.1306 -96.9950 79° East 469 540 41,000  Level Minneapolis Center
Fri 12:39:45 PM 41.1544 -96.8239 79° East 472 543 41,000  Level Minneapolis Center
Fri 12:40:47 PM 41.1769 -96.6525 80° East 473 544 41,000  Level Minneapolis Center
Fri 12:41:49 PM 41.2061 -96.4486 79° East 471 542 41,000  Level Minneapolis Center
Fri 12:42:51 PM 41.2281 -96.2769 80° East 470 541 41,000  Level Minneapolis Center
Fri 12:43:53 PM 41.2506 -96.1069 80° East 468 539 41,000  Level Minneapolis Center
Fri 12:44:55 PM 41.2728 -95.9364 80° East 468 539 41,000  Level Minneapolis Center
Fri 12:45:57 PM 41.2939 -95.7661 81° East 467 537 41,000  Level Minneapolis Center
Fri 12:46:59 PM 41.3178 -95.5761 80° East 467 537 41,000  Level Minneapolis Center
Fri 12:48:02 PM 41.3392 -95.4050 80° East 469 540 41,000  Level Minneapolis Center
Fri 12:49:04 PM 41.3603 -95.2339 81° East 470 541 41,000  Level Minneapolis Center
Fri 12:50:06 PM 41.3808 -95.0631 81° East 469 540 41,000  Level Minneapolis Center
Fri 12:51:08 PM 41.4017 -94.8919 81° East 470 541 41,000  Level Minneapolis Center
Fri 12:52:10 PM 41.4261 -94.6864 81° East 468 539 41,000  Level Minneapolis Center
Fri 12:53:12 PM 41.4467 -94.5169 81° East 465 535 41,000  Level Minneapolis Center
Fri 12:54:14 PM 41.4642 -94.3472 82° East 463 533 41,000  Level Minneapolis Center
Fri 12:55:16 PM 41.4867 -94.1644 81° East 464 534 41,000  Level Minneapolis Center
Fri 12:56:18 PM 41.5058 -93.9969 81° East 461 531 41,000  Level Minneapolis Center
Fri 12:57:20 PM 41.5236 -93.8283 82° East 461 531 41,000  Level Minneapolis Center
Fri 12:58:22 PM 41.5428 -93.6597 81° East 462 532 41,000  Level Minneapolis Center
Fri 12:59:24 PM 41.5622 -93.4892 81° East 465 535 41,000  Level Minneapolis Center
Fri 01:00:30 PM 41.5831 -93.2861 82° East 464 534 41,000  Level Minneapolis Center
Fri 01:01:32 PM 41.6014 -93.1161 82° East 464 534 41,000  Level Minneapolis Center
Fri 01:02:34 PM 41.6183 -92.9478 82° East 462 532 41,000  Level Minneapolis Center
Fri 01:03:36 PM 41.6367 -92.7789 82° East 461 531 41,000  Level Minneapolis Center
Fri 01:04:38 PM 41.6569 -92.5722 82° East 466 536 41,000  Level Minneapolis Center
Fri 01:05:40 PM 41.6739 -92.4017 82° East 467 537 41,000  Level Minneapolis Center
Fri 01:06:42 PM 41.6900 -92.2397 82° East 467 537 41,000  Level Minneapolis Center
Fri 01:07:44 PM 41.7056 -92.0683 83° East 468 539 41,000  Level Minneapolis Center
Fri 01:08:46 PM 41.7253 -91.8633 83° East 468 539 41,000  Level Minneapolis Center
Fri 01:09:48 PM 41.7389 -91.7067 83° East 472 543 41,000  Level Minneapolis Center
Fri 01:11:16 PM 41.7619 -91.4456 83° East 472 543 41,000  Level Chicago Center
Fri 01:12:18 PM 41.7808 -91.2367 83° East 476 548 41,000  Level Chicago Center
Fri 01:13:20 PM 41.7958 -91.0622 83° East 478 550 41,000  Level Chicago Center
Fri 01:14:22 PM 41.8103 -90.8869 84° East 479 551 41,000  Level Chicago Center
Fri 01:15:24 PM 41.8256 -90.7122 83° East 478 550 41,000  Level Chicago Center
Fri 01:16:26 PM 41.8392 -90.5347 84° East 482 555 41,000  Level Chicago Center
Fri 01:17:28 PM 41.8572 -90.3239 83° East 482 555 41,000  Level Chicago Center
Fri 01:18:30 PM 41.8711 -90.1497 84° East 478 550 41,000  Level Chicago Center
Fri 01:19:33 PM 41.8833 -89.9781 84° East 471 542 41,000  Level Chicago Center
Fri 01:20:35 PM 41.8964 -89.8003 84° East 469 540 41,000  Level Chicago Center
Fri 01:21:37 PM 41.9094 -89.6225 84° East 480 552 41,000  Level Chicago Center
Fri 01:22:39 PM 41.9261 -89.4019 84° East 498 573 41,000  Level Chicago Center
Fri 01:23:41 PM 41.9386 -89.2156 85° East 501 577 41,000  Level Chicago Center
Fri 01:24:43 PM 41.9511 -89.0286 85° East 505 581 41,000  Level Chicago Center
Fri 01:25:45 PM 41.9622 -88.8389 85° East 508 585 41,000  Level Chicago Center
Fri 01:26:47 PM 41.9753 -88.6514 85° East 507 583 41,000  Level Chicago Center
Fri 01:27:49 PM 41.9864 -88.4669 85° East 500 575 41,000  Level Chicago Center
Fri 01:28:51 PM 42.0003 -88.2483 85° East 492 566 41,000  Level Chicago Center
Fri 01:29:54 PM 42.0111 -88.0667 85° East 489 563 41,000  Level Chicago Center
Fri 01:30:56 PM 42.0219 -87.8844 85° East 486 559 41,000  Level Chicago Center
Fri 01:31:58 PM 42.0314 -87.7053 86° East 480 552 41,000  Level Chicago Center
Fri 01:33:00 PM 42.0408 -87.5261 86° East 480 552 41,000  Level Chicago Center
Fri 01:34:02 PM 42.0508 -87.3472 86° East 480 552 41,000  Level Chicago Center
Fri 01:35:04 PM 42.0642 -87.1700 84° East 478 550 41,000  Level Chicago Center
Fri 01:36:06 PM 42.0908 -86.9586 80° East 479 551 41,000  Level Chicago Center
Fri 01:37:08 PM 42.1111 -86.7817 81° East 480 552 41,000  Level Chicago Center
Fri 01:38:10 PM 42.1292 -86.6200 81° East 480 552 41,000  Level Chicago Center
Fri 01:39:12 PM 42.1539 -86.4058 81° East 483 556 41,000  Level Chicago Center
Fri 01:40:14 PM 42.1733 -86.2292 81° East 478 550 41,000  Level Chicago Center
Fri 01:41:17 PM 42.1931 -86.0492 82° East 482 555 41,000  Level Chicago Center
Fri 01:42:19 PM 42.2128 -85.8700 81° East 481 554 41,000  Level Chicago Center
Fri 01:43:21 PM 42.2319 -85.6922 82° East 480 552 41,000  Level Chicago Center
Fri 01:44:23 PM 42.2500 -85.5144 82° East 477 549 41,000  Level Chicago Center
Fri 01:45:25 PM 42.2692 -85.3358 82° East 478 550 41,000  Level Chicago Center
Fri 01:46:27 PM 42.2911 -85.1228 82° East 478 550 41,000  Level Chicago Center
Fri 01:47:29 PM 42.3094 -84.9433 82° East 479 551 41,000  Level Chicago Center
Fri 01:48:31 PM 42.3261 -84.7636 83° East 482 555 41,000  Level Chicago Center
Fri 01:49:33 PM 42.3433 -84.5819 83° East 480 552 41,000  Level Chicago Center
Fri 01:50:36 PM 42.3594 -84.4067 83° East 479 551 41,000  Level Chicago Center
Fri 01:51:38 PM 42.3772 -84.2300 82° East 478 550 41,000  Level Chicago Center
Fri 01:52:40 PM 42.3978 -84.0139 83° East 480 552 41,000  Level Chicago Center
Fri 01:53:42 PM 42.4094 -83.8403 85° East 488 562 41,000  Level Cleveland Center
Fri 01:54:45 PM 42.4250 -83.6553 83° East 490 564 41,000  Level Cleveland Center
Fri 01:55:47 PM 42.4414 -83.4686 83° East 489 563 41,000  Level Cleveland Center
Fri 01:56:49 PM 42.4575 -83.2808 83° East 493 567 41,000  Level Cleveland Center
Fri 01:57:51 PM 42.4719 -83.0975 84° East 489 563 41,000  Level Cleveland Center
Fri 01:58:53 PM 42.4894 -82.8794 84° East 486 559 41,000  Level Cleveland Center
Fri 01:59:55 PM 42.5039 -82.6942 84° East 491 565 41,000  Level Cleveland Center
Fri 02:00:57 PM 42.5192 -82.5053 84° East 500 575 41,000  Level Cleveland Center
Fri 02:01:59 PM 42.5333 -82.3142 84° East 507 583 41,000  Level Cleveland Center
Fri 02:03:01 PM 42.5472 -82.1203 84° East 515 593 41,000  Level Cleveland Center
Fri 02:04:03 PM 42.5617 -81.9267 84° East 517 595 41,000  Level Cleveland Center
Fri 02:05:05 PM 42.5769 -81.7028 85° East 520 598 41,000  Level Cleveland Center
Fri 02:06:08 PM 42.5914 -81.5050 84° East 521 600 41,000  Level Cleveland Center
Fri 02:07:10 PM 42.6050 -81.3050 85° East 525 604 41,000  Level Cleveland Center
Fri 02:08:12 PM 42.6172 -81.1072 85° East 523 602 41,000  Level Cleveland Center
Fri 02:09:14 PM 42.6294 -80.9064 85° East 527 606 41,000  Level Cleveland Center
Fri 02:10:16 PM 42.6442 -80.6769 85° East 521 600 41,000  Level Cleveland Center
Fri 02:11:18 PM 42.6561 -80.4783 85° East 522 601 41,000  Level Cleveland Center
Fri 02:12:20 PM 42.6678 -80.2814 85° East 520 598 41,000 -97 Level Cleveland Center
Fri 02:13:22 PM 42.6781 -80.0806 86° East 525 604 40,800 -581 Descending Cleveland Center
Fri 02:14:24 PM 42.6914 -79.8639 85° East 522 601 39,800 -871 Descending Cleveland Center
Fri 02:15:26 PM 42.7019 -79.6639 86° East 532 612 39,000 -774 Descending Cleveland Center
Fri 02:16:28 PM 42.7122 -79.4622 86° East 537 618 38,200 -774 Descending Cleveland Center
Fri 02:17:30 PM 42.7219 -79.2583 86° East 540 621 37,400 -774 Descending Cleveland Center
Fri 02:18:32 PM 42.7314 -79.0564 86° East 537 618 36,600 -774 Descending Cleveland Center
Fri 02:19:34 PM 42.7400 -78.8536 87° East 538 619 35,800 -816 Descending Cleveland Center
Fri 02:20:37 PM 42.7503 -78.6119 87° East 536 617 34,900 -816 Descending Cleveland Center
Fri 02:21:39 PM 42.7581 -78.4094 87° East 536 617 34,100 -774 Descending Cleveland Center
Fri 02:22:41 PM 42.7667 -78.2133 87° East 521 600 33,300 -774 Descending Cleveland Center
Fri 02:23:43 PM 42.7739 -78.0208 87° East 511 588 32,500 -726 Descending Cleveland Center
Fri 02:24:45 PM 42.7806 -77.8261 87° East 510 587 31,800 -581 Descending Cleveland Center
Fri 02:25:47 PM 42.7875 -77.6231 87° East 521 600 31,300 -629 Descending Cleveland Center
Fri 02:26:49 PM 42.7939 -77.4169 88° East 533 613 30,500 -774 Descending Cleveland Center
Fri 02:27:51 PM 42.8006 -77.2189 87° East 525 604 29,700 -677 Descending Cleveland Center
Fri 02:28:53 PM 42.8072 -76.9839 88° East 519 597 29,100 -339 Descending Cleveland Center
Fri 02:29:55 PM 42.8136 -76.7889 87° East 517 595 29,000 -48 Descending Cleveland Center
Fri 02:30:57 PM 42.8169 -76.6083 88° East 514 592 29,000  Level Cleveland Center
Fri 02:31:59 PM 42.8219 -76.4183 88° East 506 582 29,000 -714 Level Cleveland Center
Fri 02:33:03 PM 42.8283 -76.1889 88° East 503 579 27,500 -1,415 Descending Boston Center
Fri 02:34:02 PM 42.8347 -75.9967 87° East 503 579 26,100 -1,600 Descending Boston Center
Fri 02:35:03 PM 42.8364 -75.8011 89° East 508 585 24,300 -1,869 Descending Boston Center
Fri 02:36:04 PM 42.8375 -75.6172 89° East 501 577 22,300 -2,017 Descending Boston Center
Fri 02:37:02 PM 42.8403 -75.4333 89° East 495 570 20,300 -2,034 Descending Boston Center
Fri 02:38:02 PM 42.8428 -75.2606 89° East 476 548 18,300 -1,950 Descending Boston Center
Fri 02:39:02 PM 42.8300 -75.0958 96° East 452 520 16,400 -1,636 Descending Boston Center
Fri 02:40:03 PM 42.7981 -74.9472 106° East 423 487 15,000 -1,438 Descending Boston Center
Fri 02:41:03 PM 42.7697 -74.8019 105° East 403 464 13,500 -1,478 Descending Boston Center
Fri 02:41:12 PM 42.7661 -74.7819 104° East 396 456 13,300 -941 Descending Boston Center
Fri 02:41:54 PM 42.7492 -74.6850 103° East 385 443 12,700 -923 Descending Boston Center
Fri 02:42:04 PM 42.7414 -74.6594 113° Southeast 398 458 12,500 -1,082 Descending Boston Center
Fri 02:42:55 PM 42.7603 -74.5356 78° East 369 425 11,600 -900 Descending Boston Center
Fri 02:43:04 PM 42.7583 -74.5356 180° South 361 415 11,600 -1,300 Level Boston Center
Fri 02:43:55 PM 42.7772 -74.4061 79° East 356 410 10,300 -1,400 Descending Boston Center
Fri 02:44:04 PM 42.7797 -74.3919 76° East 361 415 10,200 -2,239 Descending Boston Center
Fri 02:45:02 PM 42.7981 -74.2822 77° East 300 345 7,800 -2,288 Descending Boston Center
Fri 02:46:02 PM 42.8103 -74.1750 81° East 284 327 5,700 -2,158 Descending Boston Center
Fri 02:46:56 PM 42.8136 -74.0931 87° East 234 269 3,700 -1,967 Descending Boston Center
Fri 02:47:03 PM 42.8136 -74.0903 90° East 257 296 3,700 -1,219 Level Boston Center
Fri 02:48:00 PM 42.8147 -74.0081 89° East 220 253 2,400 -879 Descending Boston Center
Fri 02:48:59 PM 42.8117 -73.9261 93° East 207 238 2,000 -449 Descending Boston Center
Fri 02:49:47 PM 42.8247 -73.8867 66° East 153 176 1,600 -672 Descending Boston Center
Fri 02:50:55 PM 42.8494 -73.9100 325° Northwest 114 131 700 -794 Descending Boston Center

Login

Don't have an account? Register now (free) for customized features, flight alerts, and more!